createdAt,value
2023-04-21T00:00:54.075Z,4.60
2023-04-21T00:03:23.850Z,4.97
2023-04-21T00:05:51.178Z,4.72
2023-04-21T00:08:18.715Z,4.57
2023-04-21T00:10:46.803Z,4.65
2023-04-21T00:13:14.259Z,4.90
2023-04-21T00:15:41.313Z,4.70
2023-04-21T00:18:08.147Z,4.50
2023-04-21T00:20:34.801Z,4.70
2023-04-21T00:23:01.581Z,4.47
2023-04-21T00:25:28.281Z,4.57
2023-04-21T00:27:55.500Z,4.32
2023-04-21T00:30:22.530Z,4.75
2023-04-21T00:32:49.281Z,4.30
2023-04-21T00:35:15.939Z,4.65
2023-04-21T00:37:42.613Z,5.18
2023-04-21T00:40:11.682Z,4.15
2023-04-21T00:42:40.002Z,4.40
2023-04-21T00:45:07.026Z,4.28
2023-04-21T00:47:33.760Z,4.32
2023-04-21T00:50:00.791Z,4.68
2023-04-21T00:52:28.379Z,4.22
2023-04-21T00:54:55.782Z,4.40
2023-04-21T00:57:23.084Z,4.72
2023-04-21T00:59:52.602Z,4.80
2023-04-21T01:02:19.516Z,4.55
2023-04-21T01:04:47.916Z,4.70
2023-04-21T01:07:14.577Z,4.22
2023-04-21T01:09:41.267Z,4.45
2023-04-21T01:12:11.749Z,4.53
2023-04-21T01:14:39.726Z,4.38
2023-04-21T01:17:08.025Z,4.53
2023-04-21T01:19:41.205Z,4.72
2023-04-21T01:22:12.321Z,4.75
2023-04-21T01:24:40.761Z,4.50
2023-04-21T01:27:11.592Z,4.32
2023-04-21T01:29:39.272Z,4.57
2023-04-21T01:32:10.508Z,4.30
2023-04-21T01:34:37.774Z,4.57
2023-04-21T01:37:08.373Z,4.30
2023-04-21T01:39:38.342Z,4.10
2023-04-21T01:42:06.151Z,4.47
2023-04-21T01:44:33.001Z,4.32
2023-04-21T01:47:00.827Z,4.50
2023-04-21T01:49:27.546Z,4.25
2023-04-21T01:51:54.187Z,4.32
2023-04-21T01:54:20.907Z,4.30
2023-04-21T01:56:47.598Z,4.28
2023-04-21T01:59:15.198Z,4.28
2023-04-21T02:01:41.930Z,4.35
2023-04-21T02:04:08.927Z,4.13
2023-04-21T02:06:35.936Z,4.15
2023-04-21T02:09:02.603Z,4.13
2023-04-21T02:11:31.392Z,4.13
2023-04-21T02:13:58.650Z,3.88
2023-04-21T02:16:28.193Z,4.50
2023-04-21T02:18:57.038Z,4.47
2023-04-21T02:21:24.514Z,4.20
2023-04-21T02:23:51.562Z,4.03
2023-04-21T02:26:18.664Z,3.95
2023-04-21T02:28:45.705Z,4.20
2023-04-21T02:31:14.891Z,4.22
2023-04-21T02:33:41.519Z,4.07
2023-04-21T02:36:08.522Z,4.13
2023-04-21T02:38:35.658Z,4.60
2023-04-21T02:41:02.539Z,4.15
2023-04-21T02:43:29.233Z,4.13
2023-04-21T02:45:55.946Z,4.43
2023-04-21T02:48:25.484Z,4.32
2023-04-21T02:50:53.395Z,4.05
2023-04-21T02:53:21.021Z,4.13
2023-04-21T02:55:47.916Z,4.10
2023-04-21T02:58:15.112Z,3.65
2023-04-21T03:00:41.785Z,4.15
2023-04-21T03:03:08.687Z,4.32
2023-04-21T03:05:35.759Z,4.10
2023-04-21T03:08:02.380Z,4.30
2023-04-21T03:10:29.117Z,4.32
2023-04-21T03:12:56.375Z,3.95
2023-04-21T03:15:24.011Z,4.25
2023-04-21T03:17:50.902Z,3.90
2023-04-21T03:20:17.869Z,3.70
2023-04-21T03:22:44.648Z,4.05
2023-04-21T03:25:12.194Z,3.92
2023-04-21T03:27:39.085Z,3.83
2023-04-21T03:30:07.048Z,4.10
2023-04-21T03:32:34.009Z,4.10
2023-04-21T03:35:00.794Z,4.00
2023-04-21T03:37:27.503Z,3.88
2023-04-21T03:39:55.517Z,3.78
2023-04-21T03:42:23.030Z,3.78
2023-04-21T03:44:49.813Z,3.75
2023-04-21T03:47:17.548Z,3.90
2023-04-21T03:49:44.227Z,3.78
2023-04-21T03:52:12.036Z,3.70
2023-04-21T03:54:38.630Z,3.75
2023-04-21T03:57:05.254Z,3.60
2023-04-21T03:59:31.888Z,3.60
2023-04-21T04:01:58.560Z,3.90
2023-04-21T04:04:25.364Z,3.60
2023-04-21T04:06:52.321Z,3.88
2023-04-21T04:09:19.250Z,3.72
2023-04-21T04:11:46.284Z,4.18
2023-04-21T04:14:12.881Z,3.80
2023-04-21T04:16:39.506Z,3.63
2023-04-21T04:19:06.210Z,3.80
2023-04-21T04:21:33.360Z,3.83
2023-04-21T04:24:00.659Z,4.10
2023-04-21T04:26:27.360Z,3.70
2023-04-21T04:28:56.422Z,3.70
2023-04-21T04:31:25.405Z,3.38
2023-04-21T04:33:54.969Z,3.72
2023-04-21T04:36:22.581Z,3.75
2023-04-21T04:38:49.201Z,3.45
2023-04-21T04:41:19.644Z,4.00
2023-04-21T04:43:47.480Z,4.00
2023-04-21T04:46:14.169Z,3.72
2023-04-21T04:48:40.980Z,4.07
2023-04-21T04:51:07.687Z,3.40
2023-04-21T04:53:34.368Z,3.88
2023-04-21T04:56:01.188Z,3.70
2023-04-21T04:58:27.810Z,3.30
2023-04-21T05:00:54.468Z,3.70
2023-04-21T05:03:21.199Z,3.92
2023-04-21T05:05:48.134Z,3.53
2023-04-21T05:08:17.213Z,3.60
2023-04-21T05:10:44.708Z,3.70
2023-04-21T05:13:11.371Z,4.25
2023-04-21T05:15:38.047Z,3.88
2023-04-21T05:18:04.771Z,3.75
2023-04-21T05:20:31.759Z,4.03
2023-04-21T05:22:58.632Z,3.90
2023-04-21T05:25:25.434Z,3.90
2023-04-21T05:27:52.099Z,4.28
2023-04-21T05:30:18.756Z,4.18
2023-04-21T05:32:45.503Z,4.18
2023-04-21T05:35:12.347Z,4.25
2023-04-21T05:37:39.003Z,4.30
2023-04-21T05:40:06.271Z,4.18
2023-04-21T05:42:32.981Z,3.95
2023-04-21T05:44:59.713Z,4.30
2023-04-21T05:47:26.512Z,4.18
2023-04-21T05:49:53.928Z,4.47
2023-04-21T05:52:21.759Z,4.20
2023-04-21T05:54:48.483Z,3.80
2023-04-21T05:57:16.657Z,4.47
2023-04-21T05:59:43.849Z,4.30
2023-04-21T06:02:11.692Z,4.60
2023-04-21T06:04:38.747Z,4.10
2023-04-21T06:07:10.342Z,4.20
2023-04-21T06:09:37.055Z,4.07
2023-04-21T06:12:03.848Z,3.85
2023-04-21T06:14:30.652Z,3.90
2023-04-21T06:16:57.391Z,3.90
2023-04-21T06:19:24.089Z,4.28
2023-04-21T06:21:50.819Z,3.90
2023-04-21T06:24:24.503Z,4.47
2023-04-21T06:26:52.754Z,4.18
2023-04-21T06:29:20.238Z,4.40
2023-04-21T06:31:47.518Z,3.80
2023-04-21T06:34:14.291Z,4.13
2023-04-21T06:36:40.980Z,4.10
2023-04-21T06:39:07.678Z,4.45
2023-04-21T06:41:37.128Z,4.10
2023-04-21T06:44:03.855Z,4.15
2023-04-21T06:46:31.486Z,4.25
2023-04-21T06:48:58.154Z,3.75
2023-04-21T06:51:24.883Z,3.85
2023-04-21T06:53:51.501Z,4.22
2023-04-21T06:56:18.164Z,3.92
2023-04-21T06:58:46.844Z,4.18
2023-04-21T07:01:13.578Z,3.80
2023-04-21T07:03:41.353Z,4.20
2023-04-21T07:06:08.138Z,3.78
2023-04-21T07:08:34.843Z,3.72
2023-04-21T07:11:01.578Z,3.88
2023-04-21T07:13:28.473Z,3.90
2023-04-21T07:15:55.414Z,3.95
2023-04-21T07:18:22.055Z,3.72
2023-04-21T07:20:48.781Z,4.22
2023-04-21T07:23:15.615Z,3.70
2023-04-21T07:25:42.293Z,3.90
2023-04-21T07:28:09.121Z,4.20
2023-04-21T07:30:35.912Z,4.05
2023-04-21T07:33:02.631Z,4.03
2023-04-21T07:35:29.358Z,4.10
2023-04-21T07:37:56.231Z,3.95
2023-04-21T07:40:22.978Z,3.90
2023-04-21T07:42:49.635Z,3.72
2023-04-21T07:45:19.102Z,3.72
2023-04-21T07:47:46.374Z,4.07
2023-04-21T07:50:13.316Z,4.15
2023-04-21T07:52:40.080Z,3.80
2023-04-21T07:55:06.914Z,4.00
2023-04-21T07:57:38.254Z,3.90
2023-04-21T08:00:06.268Z,4.10
2023-04-21T08:02:39.058Z,3.73
2023-04-21T08:05:06.282Z,3.80
2023-04-21T08:07:33.024Z,3.97
2023-04-21T08:10:00.304Z,4.25
2023-04-21T08:12:27.277Z,3.97
2023-04-21T08:14:56.051Z,3.90
2023-04-21T08:17:23.162Z,3.88
2023-04-21T08:19:50.052Z,3.80
2023-04-21T08:22:16.687Z,3.67
2023-04-21T08:24:43.349Z,4.00
2023-04-21T08:27:10.050Z,3.83
2023-04-21T08:29:36.877Z,3.78
2023-04-21T08:32:03.726Z,3.80
2023-04-21T08:34:31.475Z,3.90
2023-04-21T08:36:58.260Z,3.75
2023-04-21T08:39:25.114Z,3.70
2023-04-21T08:41:52.179Z,3.70
2023-04-21T08:44:19.508Z,3.63
2023-04-21T08:46:49.095Z,3.72
2023-04-21T08:49:20.970Z,4.15
2023-04-21T08:51:48.147Z,3.72
2023-04-21T08:54:15.092Z,3.83
2023-04-21T08:56:41.942Z,4.00
2023-04-21T08:59:08.598Z,3.80
2023-04-21T09:02:07.391Z,3.53
2023-04-21T09:04:34.723Z,3.92
2023-04-21T09:07:01.873Z,3.80
2023-04-21T09:09:28.561Z,4.03
2023-04-21T09:11:57.234Z,3.80
2023-04-21T09:14:31.630Z,3.90
2023-04-21T09:17:05.558Z,4.03
2023-04-21T09:19:34.709Z,3.58
2023-04-21T09:22:01.732Z,3.95
2023-04-21T09:24:28.390Z,3.90
2023-04-21T09:26:55.044Z,3.72
2023-04-21T09:29:25.318Z,3.70
2023-04-21T09:31:52.981Z,3.80
2023-04-21T09:34:21.736Z,3.80
2023-04-21T09:36:48.593Z,3.65
2023-04-21T09:39:29.101Z,4.05
2023-04-21T09:42:02.398Z,3.78
2023-04-21T09:44:31.917Z,3.80
2023-04-21T09:47:04.196Z,3.83
2023-04-21T09:49:32.079Z,3.75
2023-04-21T09:52:17.708Z,3.80
2023-04-21T09:54:50.761Z,3.70
2023-04-21T09:57:27.028Z,3.90
2023-04-21T10:00:01.791Z,3.70
2023-04-21T10:04:58.220Z,3.40
2023-04-21T10:07:24.905Z,3.70
2023-04-21T10:13:45.991Z,3.53
2023-04-21T10:16:12.771Z,3.58
2023-04-21T10:18:46.201Z,3.70
2023-04-21T10:21:20.144Z,3.60
2023-04-21T10:23:52.182Z,3.33
2023-04-21T10:26:26.165Z,3.63
2023-04-21T10:29:01.767Z,3.57
2023-04-21T10:31:34.799Z,3.10
2023-04-21T10:34:07.744Z,3.40
2023-04-21T10:36:53.038Z,3.50
2023-04-21T10:42:12.495Z,3.13
2023-04-21T10:45:05.992Z,3.42
2023-04-21T10:47:41.208Z,3.15
2023-04-21T10:50:12.256Z,3.33
2023-04-21T10:52:38.928Z,3.10
2023-04-21T10:55:12.331Z,3.10
2023-04-21T10:57:44.948Z,3.03
2023-04-21T11:00:15.985Z,3.17
2023-04-21T11:02:44.724Z,3.50
2023-04-21T11:05:11.984Z,3.47
2023-04-21T11:07:38.699Z,3.45
2023-04-21T11:10:07.653Z,3.15
2023-04-21T11:12:38.049Z,3.60
2023-04-21T11:15:10.309Z,3.33
2023-04-21T11:17:39.991Z,3.88
2023-04-21T11:20:07.539Z,3.30
2023-04-21T11:22:34.310Z,4.25
2023-04-21T11:25:01.263Z,3.50
2023-04-21T11:27:29.398Z,3.50
2023-04-21T11:29:57.267Z,3.40
2023-04-21T11:32:24.471Z,3.50
2023-04-21T11:34:51.312Z,3.08
2023-04-21T11:37:24.854Z,3.40
2023-04-21T11:39:59.788Z,3.88
2023-04-21T11:42:26.743Z,3.70
2023-04-21T11:44:57.382Z,3.35
2023-04-21T11:47:28.563Z,3.45
2023-04-21T11:49:58.967Z,3.45
2023-04-21T11:52:26.656Z,3.53
2023-04-21T11:55:01.012Z,3.30
2023-04-21T11:57:29.199Z,3.75
2023-04-21T12:00:02.291Z,3.70
2023-04-21T12:02:32.481Z,3.70
2023-04-21T12:05:03.580Z,3.25
2023-04-21T12:07:32.229Z,3.30
2023-04-21T12:09:59.872Z,3.40
2023-04-21T12:12:26.836Z,3.33
2023-04-21T12:14:53.489Z,3.20
2023-04-21T12:17:20.833Z,3.28
2023-04-21T12:19:47.749Z,3.20
2023-04-21T12:22:16.079Z,3.22
2023-04-21T12:24:43.332Z,3.40
2023-04-21T12:27:10.642Z,3.25
2023-04-21T12:29:38.545Z,3.17
2023-04-21T12:32:06.648Z,3.15
2023-04-21T12:34:33.723Z,3.00
2023-04-21T12:37:00.961Z,3.63
2023-04-21T12:39:28.014Z,3.15
2023-04-21T12:41:54.922Z,3.15
2023-04-21T12:44:21.894Z,3.08
2023-04-21T12:46:49.547Z,3.03
2023-04-21T12:49:17.327Z,3.13
2023-04-21T12:51:44.641Z,3.00
2023-04-21T12:54:12.457Z,2.90
2023-04-21T12:56:42.826Z,2.90
2023-04-21T12:59:10.785Z,2.88
2023-04-21T13:01:39.038Z,3.17
2023-04-21T13:04:06.149Z,3.00
2023-04-21T13:06:33.828Z,3.10
2023-04-21T13:09:00.694Z,2.92
2023-04-21T13:11:27.892Z,3.10
2023-04-21T13:13:54.525Z,3.10
2023-04-21T13:16:21.315Z,2.95
2023-04-21T13:18:48.106Z,2.85
2023-04-21T13:21:14.877Z,3.05
2023-04-21T13:23:41.648Z,2.80
2023-04-21T13:26:08.698Z,3.58
2023-04-21T13:28:35.435Z,2.92
2023-04-21T13:31:02.194Z,3.13
2023-04-21T13:33:29.048Z,2.80
2023-04-21T13:35:55.789Z,2.97
2023-04-21T13:38:22.504Z,2.97
2023-04-21T13:40:49.508Z,3.05
2023-04-21T13:43:16.210Z,3.10
2023-04-21T13:45:43.060Z,2.90
2023-04-21T13:48:09.741Z,3.20
2023-04-21T13:50:36.434Z,3.00
2023-04-21T13:53:03.089Z,2.85
2023-04-21T13:55:29.843Z,2.85
2023-04-21T13:57:56.515Z,3.00
2023-04-21T14:00:23.513Z,2.72
2023-04-21T14:02:50.277Z,2.88
2023-04-21T14:05:17.305Z,3.20
2023-04-21T14:07:44.209Z,2.72
2023-04-21T14:10:12.119Z,2.88
2023-04-21T14:12:38.836Z,2.70
2023-04-21T14:15:06.789Z,2.53
2023-04-21T14:17:33.481Z,2.70
2023-04-21T14:20:00.239Z,2.63
2023-04-21T14:22:28.176Z,2.75
2023-04-21T14:24:54.911Z,2.67
2023-04-21T14:27:21.824Z,2.60
2023-04-21T14:29:48.525Z,2.60
2023-04-21T14:32:15.334Z,2.80
2023-04-21T14:34:42.047Z,2.42
2023-04-21T14:37:08.717Z,2.72
2023-04-21T14:39:36.001Z,2.65
2023-04-21T14:42:02.989Z,2.90
2023-04-21T14:44:29.853Z,2.70
2023-04-21T14:47:08.310Z,2.83
2023-04-21T14:49:36.962Z,2.67
2023-04-21T14:52:04.317Z,2.78
2023-04-21T14:54:30.963Z,2.50
2023-04-21T14:57:10.536Z,2.80
2023-04-21T14:59:46.758Z,3.10
2023-04-21T15:02:13.850Z,2.85
2023-04-21T15:04:41.081Z,2.90
2023-04-21T15:07:07.815Z,2.70
2023-04-21T15:09:36.091Z,2.70
2023-04-21T15:12:03.067Z,2.63
2023-04-21T15:14:29.808Z,2.45
2023-04-21T15:16:56.572Z,2.72
2023-04-21T15:19:25.422Z,2.60
2023-04-21T15:21:52.451Z,2.53
2023-04-21T15:24:19.151Z,2.38
2023-04-21T15:26:45.938Z,2.60
2023-04-21T15:29:12.661Z,2.80
2023-04-21T15:31:39.791Z,2.80
2023-04-21T15:34:06.558Z,2.42
2023-04-21T15:36:33.174Z,2.42
2023-04-21T15:38:59.934Z,2.35
2023-04-21T15:41:29.383Z,2.60
2023-04-21T15:43:56.278Z,2.50
2023-04-21T15:46:23.209Z,2.40
2023-04-21T15:48:49.963Z,2.30
2023-04-21T15:51:17.071Z,2.17
2023-04-21T15:53:47.800Z,2.20
2023-04-21T15:56:15.704Z,2.40
2023-04-21T15:58:42.500Z,2.30
2023-04-21T16:01:09.334Z,2.30
2023-04-21T16:03:36.564Z,2.50
2023-04-21T16:06:04.018Z,2.30
2023-04-21T16:08:33.494Z,2.30
2023-04-21T16:11:00.965Z,2.38
2023-04-21T16:13:27.804Z,2.42
2023-04-21T16:15:54.767Z,2.30
2023-04-21T16:18:21.597Z,2.58
2023-04-21T16:20:48.399Z,2.30
2023-04-21T16:23:15.886Z,2.50
2023-04-21T16:25:42.968Z,2.40
2023-04-21T16:28:11.363Z,2.33
2023-04-21T16:30:43.225Z,2.25
2023-04-21T16:33:11.519Z,2.10
2023-04-21T16:35:39.128Z,2.30
2023-04-21T16:38:06.274Z,2.30
2023-04-21T16:40:33.419Z,2.22
2023-04-21T16:43:00.183Z,2.30
2023-04-21T16:45:28.307Z,2.20
2023-04-21T16:47:55.131Z,2.10
2023-04-21T16:50:21.912Z,2.35
2023-04-21T16:52:48.549Z,2.30
2023-04-21T16:55:15.281Z,2.53
2023-04-21T16:57:42.077Z,2.28
2023-04-21T17:00:09.536Z,2.28
2023-04-21T17:02:36.426Z,2.20
2023-04-21T17:05:04.038Z,2.17
2023-04-21T17:07:34.254Z,2.40
2023-04-21T17:10:01.198Z,2.45
2023-04-21T17:12:27.999Z,2.15
2023-04-21T17:14:54.637Z,2.25
2023-04-21T17:17:21.369Z,2.30
2023-04-21T17:19:48.338Z,2.08
2023-04-21T17:22:15.017Z,2.20
2023-04-21T17:24:52.506Z,2.30
2023-04-21T17:27:21.149Z,2.20
2023-04-21T17:29:48.069Z,2.20
2023-04-21T17:32:14.776Z,2.20
2023-04-21T17:34:41.416Z,2.20
2023-04-21T17:37:08.125Z,2.20
2023-04-21T17:39:34.813Z,2.15
2023-04-21T17:42:02.690Z,1.90
2023-04-21T17:44:29.590Z,1.92
2023-04-21T17:46:56.777Z,2.20
2023-04-21T17:49:24.950Z,2.17
2023-04-21T17:51:51.766Z,2.20
2023-04-21T17:54:18.416Z,2.28
2023-04-21T17:56:48.257Z,2.30
2023-04-21T17:59:14.870Z,1.80
2023-04-21T18:01:41.590Z,2.35
2023-04-21T18:04:08.573Z,2.10
2023-04-21T18:06:35.886Z,2.25
2023-04-21T18:09:04.906Z,2.08
2023-04-21T18:11:31.840Z,2.00
2023-04-21T18:13:58.760Z,2.20
2023-04-21T18:16:26.392Z,2.30
2023-04-21T18:18:53.302Z,2.20
2023-04-21T18:21:20.805Z,2.00
2023-04-21T18:23:47.564Z,2.28
2023-04-21T18:26:14.276Z,2.30
2023-04-21T18:28:40.958Z,1.95
2023-04-21T18:31:07.618Z,2.20
2023-04-21T18:33:34.447Z,1.83
2023-04-21T18:36:01.102Z,1.90
2023-04-21T18:38:27.789Z,2.30
2023-04-21T18:40:55.588Z,2.10
2023-04-21T18:43:22.568Z,2.38
2023-04-21T18:45:49.206Z,2.25
2023-04-21T18:48:15.861Z,2.35
2023-04-21T18:50:42.781Z,2.20
2023-04-21T18:53:09.598Z,2.20
2023-04-21T18:55:36.497Z,1.90
2023-04-21T18:58:03.736Z,2.20
2023-04-21T19:00:32.098Z,1.92
2023-04-21T19:03:02.535Z,2.17
2023-04-21T19:05:31.650Z,2.25
2023-04-21T19:07:58.700Z,2.10
2023-04-21T19:10:25.853Z,2.35
2023-04-21T19:12:52.609Z,2.20
2023-04-21T19:15:20.483Z,1.98
2023-04-21T19:17:47.184Z,2.13
2023-04-21T19:20:13.902Z,1.90
2023-04-21T19:22:41.237Z,2.42
2023-04-21T19:25:08.607Z,2.22
2023-04-21T19:27:35.910Z,2.13
2023-04-21T19:30:02.829Z,2.30
2023-04-21T19:32:29.910Z,2.28
2023-04-21T19:34:56.704Z,2.22
2023-04-21T19:37:23.382Z,2.25
2023-04-21T19:39:50.054Z,2.22
2023-04-21T19:42:16.661Z,2.22
2023-04-21T19:44:43.816Z,2.30
2023-04-21T19:47:10.785Z,2.40
2023-04-21T19:49:37.518Z,2.20
2023-04-21T19:52:04.332Z,2.40
2023-04-21T19:54:31.084Z,2.38
2023-04-21T19:56:57.703Z,2.13
2023-04-21T19:59:24.356Z,2.33
2023-04-21T20:01:51.138Z,2.40
2023-04-21T20:04:17.981Z,2.20
2023-04-21T20:06:44.836Z,2.10
2023-04-21T20:09:12.226Z,2.30
2023-04-21T20:11:38.969Z,2.17
2023-04-21T20:14:05.684Z,2.60
2023-04-21T20:16:32.929Z,2.50
2023-04-21T20:19:00.156Z,2.20
2023-04-21T20:21:27.403Z,2.25
2023-04-21T20:23:54.148Z,2.25
2023-04-21T20:26:20.923Z,2.17
2023-04-21T20:28:47.587Z,2.22
2023-04-21T20:31:14.786Z,2.25
2023-04-21T20:33:41.545Z,2.35
2023-04-21T20:36:08.449Z,2.25
2023-04-21T20:38:35.421Z,2.30
2023-04-21T20:41:02.691Z,2.15
2023-04-21T20:43:33.057Z,2.10
2023-04-21T20:46:01.490Z,2.22
2023-04-21T20:48:28.201Z,2.15
2023-04-21T20:50:55.741Z,2.08
2023-04-21T20:53:22.801Z,2.58
2023-04-21T20:55:49.617Z,2.22
2023-04-21T20:58:16.341Z,2.40
2023-04-21T21:00:43.061Z,2.20
2023-04-21T21:03:11.600Z,2.47
2023-04-21T21:05:38.543Z,2.10
2023-04-21T21:08:06.829Z,2.22
2023-04-21T21:10:33.622Z,2.38
2023-04-21T21:13:00.483Z,2.08
2023-04-21T21:15:28.102Z,2.45
2023-04-21T21:17:54.734Z,2.15
2023-04-21T21:20:21.504Z,2.30
2023-04-21T21:22:48.223Z,2.28
2023-04-21T21:25:14.958Z,2.20
2023-04-21T21:27:41.733Z,2.13
2023-04-21T21:30:08.939Z,2.13
2023-04-21T21:32:35.948Z,2.30
2023-04-21T21:35:02.954Z,2.70
2023-04-21T21:37:30.070Z,2.42
2023-04-21T21:39:56.759Z,2.60
2023-04-21T21:42:23.520Z,2.30
2023-04-21T21:44:50.244Z,2.35
2023-04-21T21:47:18.203Z,2.25
2023-04-21T21:49:44.897Z,2.28
2023-04-21T21:52:11.772Z,2.38
2023-04-21T21:54:38.419Z,2.22
2023-04-21T21:57:05.248Z,2.50
2023-04-21T21:59:32.024Z,2.60
2023-04-21T22:01:58.823Z,2.60
2023-04-21T22:04:25.603Z,2.67
2023-04-21T22:06:52.321Z,2.78
2023-04-21T22:09:19.201Z,2.45
2023-04-21T22:11:46.237Z,2.47
2023-04-21T22:14:22.759Z,2.35
2023-04-21T22:16:53.235Z,2.50
2023-04-21T22:19:20.553Z,2.50
2023-04-21T22:21:47.412Z,2.67
2023-04-21T22:24:14.129Z,2.50
2023-04-21T22:26:40.791Z,2.70
2023-04-21T22:29:07.467Z,2.70
2023-04-21T22:31:34.183Z,2.38
2023-04-21T22:34:01.016Z,2.40
2023-04-21T22:36:27.680Z,2.55
2023-04-21T22:38:54.410Z,2.70
2023-04-21T22:41:21.198Z,2.70
2023-04-21T22:43:47.961Z,2.80
2023-04-21T22:46:15.144Z,2.72
2023-04-21T22:48:41.862Z,2.75
2023-04-21T22:51:08.593Z,2.40
2023-04-21T22:53:35.535Z,2.47
2023-04-21T22:56:02.383Z,2.55
2023-04-21T22:58:29.029Z,2.55
2023-04-21T23:00:55.902Z,2.67
2023-04-21T23:03:23.898Z,2.50
2023-04-21T23:05:50.828Z,2.40
2023-04-21T23:08:17.507Z,2.40
2023-04-21T23:10:44.182Z,2.55
2023-04-21T23:13:10.846Z,2.45
2023-04-21T23:15:37.543Z,2.70
2023-04-21T23:18:04.567Z,2.72
2023-04-21T23:20:31.694Z,2.60
2023-04-21T23:22:58.675Z,2.80
2023-04-21T23:25:25.493Z,2.53
2023-04-21T23:27:52.153Z,2.60
2023-04-21T23:30:18.974Z,2.45
2023-04-21T23:32:45.754Z,2.60
2023-04-21T23:35:12.537Z,2.50
2023-04-21T23:37:39.371Z,2.80
2023-04-21T23:40:11.026Z,2.70
2023-04-21T23:42:39.010Z,2.60
2023-04-21T23:45:06.633Z,2.47
2023-04-21T23:47:33.518Z,2.42
2023-04-21T23:50:00.489Z,2.70
2023-04-21T23:52:27.134Z,2.60
2023-04-21T23:54:53.828Z,2.60
2023-04-21T23:57:20.435Z,2.50
2023-04-21T23:59:47.066Z,2.50
